createdAt,value
2023-03-12T00:02:00.882Z,10.88
2023-03-12T00:04:27.959Z,10.98
2023-03-12T00:06:54.509Z,10.02
2023-03-12T00:09:21.151Z,11.25
2023-03-12T00:11:47.835Z,10.85
2023-03-12T00:14:14.620Z,10.02
2023-03-12T00:16:41.298Z,9.63
2023-03-12T00:19:07.889Z,10.15
2023-03-12T00:21:34.409Z,10.82
2023-03-12T00:24:01.003Z,9.73
2023-03-12T00:26:27.853Z,9.98
2023-03-12T00:28:54.422Z,10.32
2023-03-12T00:31:29.916Z,10.73
2023-03-12T00:33:56.822Z,10.77
2023-03-12T00:36:28.787Z,10.07
2023-03-12T00:38:56.562Z,9.60
2023-03-12T00:41:24.195Z,9.23
2023-03-12T00:43:51.735Z,8.93
2023-03-12T00:46:18.733Z,9.18
2023-03-12T00:48:45.534Z,9.38
2023-03-12T00:51:12.373Z,8.88
2023-03-12T00:53:39.095Z,8.90
2023-03-12T00:56:06.585Z,8.68
2023-03-12T00:58:33.377Z,8.85
2023-03-12T01:01:00.093Z,8.90
2023-03-12T01:03:26.847Z,9.10
2023-03-12T01:05:56.557Z,8.50
2023-03-12T01:08:23.939Z,8.88
2023-03-12T01:10:51.086Z,9.25
2023-03-12T01:13:18.155Z,8.15
2023-03-12T01:15:44.832Z,8.32
2023-03-12T01:18:12.605Z,8.38
2023-03-12T01:20:40.711Z,8.38
2023-03-12T01:23:07.615Z,8.70
2023-03-12T01:25:34.682Z,8.45
2023-03-12T01:28:02.025Z,8.25
2023-03-12T01:30:29.050Z,8.65
2023-03-12T01:32:55.677Z,8.07
2023-03-12T01:35:22.307Z,8.50
2023-03-12T01:37:48.863Z,7.93
2023-03-12T01:40:25.254Z,8.32
2023-03-12T01:42:57.183Z,8.27
2023-03-12T01:46:01.711Z,8.35
2023-03-12T01:48:33.916Z,8.38
2023-03-12T01:51:01.648Z,7.65
2023-03-12T01:53:30.107Z,8.48
2023-03-12T01:55:59.719Z,8.55
2023-03-12T01:58:27.545Z,8.50
2023-03-12T02:00:55.294Z,9.02
2023-03-12T02:03:22.295Z,9.13
2023-03-12T02:05:54.568Z,8.73
2023-03-12T02:08:24.105Z,8.80
2023-03-12T02:10:51.303Z,8.93
2023-03-12T02:13:18.796Z,8.52
2023-03-12T02:15:45.623Z,8.85
2023-03-12T02:18:16.008Z,8.30
2023-03-12T02:21:17.839Z,8.73
2023-03-12T02:24:03.065Z,7.95
2023-03-12T02:26:30.561Z,8.40
2023-03-12T02:28:59.256Z,8.15
2023-03-12T02:31:29.202Z,8.32
2023-03-12T02:33:56.018Z,8.05
2023-03-12T02:36:22.740Z,7.57
2023-03-12T02:38:51.687Z,8.13
2023-03-12T02:41:21.658Z,8.68
2023-03-12T02:44:06.132Z,8.20
2023-03-12T02:46:36.175Z,7.33
2023-03-12T02:49:03.262Z,8.07
2023-03-12T02:51:30.087Z,8.52
2023-03-12T02:53:56.764Z,8.30
2023-03-12T02:56:25.456Z,8.45
2023-03-12T02:58:52.088Z,8.35
2023-03-12T03:01:19.103Z,8.55
2023-03-12T03:03:46.225Z,8.73
2023-03-12T03:06:13.460Z,8.30
2023-03-12T03:08:40.233Z,8.00
2023-03-12T03:11:07.477Z,8.48
2023-03-12T03:13:34.824Z,8.00
2023-03-12T03:16:01.983Z,8.48
2023-03-12T03:18:30.067Z,7.70
2023-03-12T03:21:02.627Z,7.90
2023-03-12T03:23:29.459Z,8.50
2023-03-12T03:25:56.490Z,8.07
2023-03-12T03:28:24.752Z,8.23
2023-03-12T03:30:58.211Z,8.10
2023-03-12T03:33:24.853Z,8.00
2023-03-12T03:35:51.567Z,7.38
2023-03-12T03:38:18.309Z,8.00
2023-03-12T03:40:45.415Z,7.28
2023-03-12T03:43:12.053Z,7.63
2023-03-12T03:45:38.679Z,7.00
2023-03-12T03:48:05.843Z,6.82
2023-03-12T03:50:32.694Z,7.03
2023-03-12T03:52:59.246Z,6.93
2023-03-12T03:55:25.856Z,5.97
2023-03-12T03:57:52.425Z,6.65
2023-03-12T04:00:19.372Z,6.90
2023-03-12T04:02:45.887Z,5.75
2023-03-12T04:05:12.525Z,6.38
2023-03-12T04:07:39.123Z,6.60
2023-03-12T04:10:06.215Z,6.45
2023-03-12T04:12:32.766Z,6.60
2023-03-12T04:14:59.335Z,6.32
2023-03-12T04:17:25.928Z,6.13
2023-03-12T04:19:52.563Z,5.60
2023-03-12T04:22:19.167Z,6.10
2023-03-12T04:24:45.916Z,5.68
2023-03-12T04:27:12.494Z,5.90
2023-03-12T04:29:40.605Z,5.50
2023-03-12T04:32:07.418Z,6.35
2023-03-12T04:34:34.280Z,6.30
2023-03-12T04:37:02.814Z,5.90
2023-03-12T04:39:29.556Z,5.95
2023-03-12T04:41:56.073Z,5.65
2023-03-12T04:44:22.819Z,5.80
2023-03-12T04:46:49.547Z,5.70
2023-03-12T04:49:16.234Z,6.05
2023-03-12T04:51:43.033Z,5.72
2023-03-12T04:54:09.678Z,6.13
2023-03-12T04:56:36.336Z,5.30
2023-03-12T04:59:02.965Z,5.68
2023-03-12T05:01:31.876Z,5.95
2023-03-12T05:03:58.910Z,5.70
2023-03-12T05:06:26.333Z,5.30
2023-03-12T05:08:52.952Z,5.85
2023-03-12T05:11:20.803Z,6.05
2023-03-12T05:13:48.255Z,5.93
2023-03-12T05:16:16.413Z,5.60
2023-03-12T05:18:43.842Z,5.75
2023-03-12T05:21:16.169Z,5.88
2023-03-12T05:23:43.531Z,5.93
2023-03-12T05:26:34.138Z,6.43
2023-03-12T05:29:01.753Z,5.80
2023-03-12T05:31:33.045Z,5.65
2023-03-12T05:34:00.517Z,5.72
2023-03-12T05:36:27.452Z,5.93
2023-03-12T05:38:54.641Z,5.70
2023-03-12T05:41:25.150Z,5.45
2023-03-12T05:43:56.563Z,5.30
2023-03-12T05:46:24.828Z,5.68
2023-03-12T05:48:51.582Z,5.47
2023-03-12T05:51:18.430Z,5.07
2023-03-12T05:53:45.357Z,5.63
2023-03-12T05:56:15.251Z,5.35
2023-03-12T05:58:42.015Z,5.45
2023-03-12T06:01:18.476Z,5.40
2023-03-12T06:03:46.589Z,5.13
2023-03-12T06:06:13.897Z,5.50
2023-03-12T06:08:41.539Z,5.95
2023-03-12T06:11:08.203Z,5.90
2023-03-12T06:13:34.807Z,5.88
2023-03-12T06:16:07.433Z,5.55
2023-03-12T06:18:34.594Z,5.43
2023-03-12T06:21:15.861Z,5.55
2023-03-12T06:23:43.524Z,6.03
2023-03-12T06:26:11.452Z,6.22
2023-03-12T06:28:38.649Z,5.85
2023-03-12T06:31:06.330Z,5.35
2023-03-12T06:33:33.550Z,5.43
2023-03-12T06:36:02.693Z,5.13
2023-03-12T06:38:29.362Z,5.15
2023-03-12T06:40:55.866Z,5.45
2023-03-12T06:43:22.805Z,5.13
2023-03-12T06:45:49.472Z,5.22
2023-03-12T06:48:16.229Z,4.93
2023-03-12T06:50:43.306Z,5.68
2023-03-12T06:53:09.978Z,5.03
2023-03-12T06:55:36.889Z,5.22
2023-03-12T06:58:04.026Z,4.88
2023-03-12T07:00:32.130Z,5.18
2023-03-12T07:02:58.800Z,5.85
2023-03-12T07:05:26.275Z,6.90
2023-03-12T07:07:55.169Z,6.00
2023-03-12T07:10:21.954Z,5.60
2023-03-12T07:12:48.734Z,5.28
2023-03-12T07:15:15.378Z,5.30
2023-03-12T07:17:41.948Z,4.80
2023-03-12T07:20:09.374Z,5.10
2023-03-12T07:22:35.933Z,4.93
2023-03-12T07:25:02.679Z,4.32
2023-03-12T07:27:29.178Z,4.80
2023-03-12T07:29:55.855Z,5.15
2023-03-12T07:32:22.615Z,5.40
2023-03-12T07:34:49.322Z,6.05
2023-03-12T07:37:15.865Z,5.40
2023-03-12T07:39:43.650Z,68.43
2023-03-12T07:42:12.552Z,12.68
2023-03-12T07:44:39.276Z,5.40
2023-03-12T07:47:22.374Z,4.85
2023-03-12T07:49:49.679Z,5.32
2023-03-12T07:52:17.995Z,4.63
2023-03-12T07:54:44.789Z,6.18
2023-03-12T07:57:11.800Z,14.05
2023-03-12T07:59:38.564Z,6.65
2023-03-12T08:02:05.400Z,5.32
2023-03-12T08:04:32.215Z,4.20
2023-03-12T08:06:58.942Z,4.32
2023-03-12T08:09:25.523Z,4.32
2023-03-12T08:11:52.216Z,4.20
2023-03-12T08:14:18.917Z,4.20
2023-03-12T08:16:45.615Z,3.85
2023-03-12T08:19:12.329Z,4.63
2023-03-12T08:21:38.965Z,4.28
2023-03-12T08:24:05.637Z,4.57
2023-03-12T08:26:32.280Z,4.22
2023-03-12T08:29:00.305Z,4.00
2023-03-12T08:31:28.859Z,3.95
2023-03-12T08:33:55.553Z,4.53
2023-03-12T08:36:22.676Z,4.20
2023-03-12T08:38:49.364Z,4.28
2023-03-12T08:41:15.961Z,3.78
2023-03-12T08:43:42.589Z,4.00
2023-03-12T08:46:12.195Z,4.38
2023-03-12T08:48:39.111Z,3.88
2023-03-12T08:51:07.369Z,4.75
2023-03-12T08:53:36.273Z,4.40
2023-03-12T08:56:03.650Z,4.32
2023-03-12T08:58:30.864Z,4.95
2023-03-12T09:00:58.229Z,4.45
2023-03-12T09:03:25.955Z,4.75
2023-03-12T09:06:13.115Z,5.22
2023-03-12T09:08:40.747Z,5.35
2023-03-12T09:11:09.014Z,4.70
2023-03-12T09:13:54.596Z,4.80
2023-03-12T09:16:22.571Z,5.13
2023-03-12T09:18:49.446Z,4.90
2023-03-12T09:21:16.099Z,5.18
2023-03-12T09:23:42.710Z,4.90
2023-03-12T09:26:11.522Z,5.20
2023-03-12T09:28:38.305Z,5.30
2023-03-12T09:31:06.093Z,5.57
2023-03-12T09:33:36.225Z,5.32
2023-03-12T09:36:03.494Z,5.18
2023-03-12T09:38:35.372Z,6.10
2023-03-12T09:41:05.208Z,5.20
2023-03-12T09:43:40.075Z,5.50
2023-03-12T09:46:14.094Z,5.13
2023-03-12T09:48:41.491Z,5.93
2023-03-12T09:51:40.322Z,5.75
2023-03-12T09:54:22.753Z,5.70
2023-03-12T09:56:52.280Z,5.90
2023-03-12T09:59:18.909Z,6.03
2023-03-12T10:01:58.174Z,6.05
2023-03-12T10:04:56.402Z,5.75
2023-03-12T10:07:42.779Z,6.10
2023-03-12T10:10:37.840Z,6.05
2023-03-12T10:13:25.670Z,6.00
2023-03-12T10:16:01.655Z,7.15
2023-03-12T10:18:50.820Z,6.75
2023-03-12T10:21:43.671Z,7.50
2023-03-12T10:24:16.126Z,7.88
2023-03-12T10:26:55.494Z,9.40
2023-03-12T10:29:26.600Z,8.32
2023-03-12T10:31:56.380Z,9.55
2023-03-12T10:34:41.080Z,11.50
2023-03-12T10:37:33.202Z,9.93
2023-03-12T10:40:00.956Z,12.43
2023-03-12T10:42:29.701Z,11.80
2023-03-12T10:45:11.699Z,15.13
2023-03-12T10:47:40.975Z,16.00
2023-03-12T10:50:22.717Z,15.48
2023-03-12T10:52:52.321Z,16.48
2023-03-12T10:55:26.442Z,17.33
2023-03-12T10:57:53.694Z,15.40
2023-03-12T11:00:24.428Z,15.68
2023-03-12T11:03:20.234Z,15.55
2023-03-12T11:05:50.006Z,16.05
2023-03-12T11:08:29.675Z,16.98
2023-03-12T11:10:58.257Z,16.73
2023-03-12T11:13:24.834Z,14.70
2023-03-12T11:15:52.847Z,14.00
2023-03-12T11:18:28.580Z,15.55
2023-03-12T11:21:15.173Z,17.27
2023-03-12T11:23:44.810Z,15.93
2023-03-12T11:26:19.232Z,14.48
2023-03-12T11:28:55.281Z,15.18
2023-03-12T11:31:28.417Z,15.77
2023-03-12T11:34:00.361Z,17.15
2023-03-12T11:36:34.021Z,18.52
2023-03-12T11:39:24.116Z,17.05
2023-03-12T11:42:00.514Z,18.40
2023-03-12T11:44:33.251Z,17.98
2023-03-12T11:47:06.068Z,21.77
2023-03-12T11:50:02.101Z,20.23
2023-03-12T11:52:53.565Z,18.13
2023-03-12T11:55:41.503Z,18.40
2023-03-12T11:58:23.686Z,19.13
2023-03-12T12:00:53.111Z,18.15
2023-03-12T12:04:04.481Z,19.20
2023-03-12T12:06:48.286Z,20.83
2023-03-12T12:09:33.890Z,18.85
2023-03-12T12:14:41.716Z,18.48
2023-03-12T12:17:32.654Z,19.65
2023-03-12T12:20:21.959Z,19.17
2023-03-12T12:23:00.323Z,18.58
2023-03-12T12:25:46.554Z,18.40
2023-03-12T12:28:13.611Z,17.13
2023-03-12T12:30:54.725Z,17.15
2023-03-12T12:33:50.634Z,16.70
2023-03-12T12:36:21.211Z,16.50
2023-03-12T12:39:06.847Z,15.85
2023-03-12T12:44:12.653Z,14.52
2023-03-12T12:46:52.154Z,14.27
2023-03-12T12:49:33.693Z,13.98
2023-03-12T12:52:04.732Z,13.98
2023-03-12T12:54:58.612Z,14.40
2023-03-12T12:57:42.593Z,14.02
2023-03-12T13:00:45.991Z,13.48
2023-03-12T13:03:17.603Z,13.27
2023-03-12T13:06:02.716Z,13.30
2023-03-12T13:08:39.832Z,12.70
2023-03-12T13:11:40.345Z,12.07
2023-03-12T13:14:09.694Z,13.93
2023-03-12T13:16:37.597Z,12.07
2023-03-12T13:19:13.136Z,13.00
2023-03-12T13:22:01.603Z,12.15
2023-03-12T13:24:43.544Z,13.00
2023-03-12T13:27:22.038Z,12.98
2023-03-12T13:29:55.158Z,12.18
2023-03-12T13:32:39.025Z,12.90
2023-03-12T13:35:35.874Z,13.43
2023-03-12T13:38:05.618Z,13.45
2023-03-12T13:41:03.410Z,14.75
2023-03-12T13:43:39.150Z,14.43
2023-03-12T13:46:20.983Z,13.48
2023-03-12T13:48:49.020Z,14.75
2023-03-12T13:51:20.053Z,13.90
2023-03-12T13:53:53.341Z,14.43
2023-03-12T13:56:26.257Z,13.32
2023-03-12T13:59:06.091Z,12.48
2023-03-12T14:01:40.910Z,13.05
2023-03-12T14:04:28.959Z,12.27
2023-03-12T14:07:12.033Z,11.95
2023-03-12T14:10:16.402Z,12.70
2023-03-12T14:12:53.808Z,12.65
2023-03-12T14:15:51.482Z,11.82
2023-03-12T14:18:27.934Z,11.68
2023-03-12T14:20:58.771Z,11.90
2023-03-12T14:23:29.991Z,11.77
2023-03-12T14:26:02.334Z,11.48
2023-03-12T14:28:32.707Z,12.20
2023-03-12T14:31:04.688Z,11.65
2023-03-12T14:33:35.824Z,10.98
2023-03-12T14:36:12.215Z,11.20
2023-03-12T14:38:44.589Z,11.13
2023-03-12T14:41:19.862Z,11.25
2023-03-12T14:46:18.845Z,10.10
2023-03-12T14:48:49.279Z,11.25
2023-03-12T14:51:28.209Z,11.57
2023-03-12T14:53:55.888Z,11.57
2023-03-12T14:56:30.210Z,10.13
2023-03-12T14:58:58.850Z,11.10
2023-03-12T15:01:31.852Z,10.65
2023-03-12T15:04:01.541Z,10.73
2023-03-12T15:06:46.843Z,10.65
2023-03-12T15:09:19.579Z,10.85
2023-03-12T15:11:55.524Z,10.25
2023-03-12T15:14:24.704Z,11.20
2023-03-12T15:16:52.521Z,11.63
2023-03-12T15:19:26.289Z,13.27
2023-03-12T15:21:53.969Z,12.40
2023-03-12T15:24:21.326Z,12.43
2023-03-12T15:26:51.370Z,11.77
2023-03-12T15:29:28.073Z,11.30
2023-03-12T15:32:00.239Z,10.82
2023-03-12T15:34:34.975Z,10.75
2023-03-12T15:37:18.843Z,9.27
2023-03-12T15:39:49.540Z,10.80
2023-03-12T15:42:19.869Z,9.20
2023-03-12T15:44:56.582Z,9.23
2023-03-12T15:47:32.669Z,8.93
2023-03-12T15:50:25.667Z,9.38
2023-03-12T15:53:05.921Z,10.27
2023-03-12T15:55:35.095Z,10.27
2023-03-12T15:58:02.868Z,10.13
2023-03-12T16:00:44.008Z,9.63
2023-03-12T16:03:21.774Z,9.43
2023-03-12T16:05:50.397Z,8.68
2023-03-12T16:08:23.261Z,9.35
2023-03-12T16:10:50.829Z,9.02
2023-03-12T16:13:21.141Z,9.27
2023-03-12T16:15:51.408Z,8.45
2023-03-12T16:18:20.825Z,8.82
2023-03-12T16:20:48.748Z,8.63
2023-03-12T16:23:17.706Z,9.15
2023-03-12T16:25:56.308Z,8.32
2023-03-12T16:28:23.700Z,8.55
2023-03-12T16:30:51.054Z,8.73
2023-03-12T16:33:21.002Z,9.20
2023-03-12T16:35:48.426Z,8.32
2023-03-12T16:38:15.156Z,8.32
2023-03-12T16:40:48.562Z,8.55
2023-03-12T16:43:19.535Z,8.73
2023-03-12T16:45:49.120Z,8.88
2023-03-12T16:48:21.498Z,9.18
2023-03-12T16:50:51.475Z,8.98
2023-03-12T16:53:19.085Z,9.88
2023-03-12T16:55:53.130Z,10.05
2023-03-12T16:58:23.115Z,9.52
2023-03-12T17:00:50.772Z,9.35
2023-03-12T17:03:36.056Z,11.45
2023-03-12T17:06:04.456Z,9.63
2023-03-12T17:08:31.138Z,10.65
2023-03-12T17:10:59.055Z,13.52
2023-03-12T17:13:27.947Z,16.05
2023-03-12T17:15:55.722Z,15.85
2023-03-12T17:18:22.621Z,15.05
2023-03-12T17:20:51.481Z,17.30
2023-03-12T17:23:18.241Z,18.92
2023-03-12T17:25:45.234Z,17.33
2023-03-12T17:28:14.256Z,16.27
2023-03-12T17:30:40.984Z,15.82
2023-03-12T17:33:12.118Z,14.32
2023-03-12T17:35:39.652Z,13.48
2023-03-12T17:38:06.305Z,14.40
2023-03-12T17:40:33.787Z,13.40
2023-03-12T17:43:00.283Z,12.85
2023-03-12T17:45:27.029Z,12.73
2023-03-12T17:47:53.671Z,11.48
2023-03-12T17:50:20.321Z,11.40
2023-03-12T17:52:47.048Z,12.18
2023-03-12T17:55:13.768Z,23.15
2023-03-12T17:57:40.664Z,16.35
2023-03-12T18:00:12.580Z,12.45
2023-03-12T18:02:40.735Z,10.50
2023-03-12T18:05:09.103Z,9.02
2023-03-12T18:07:35.958Z,5.72
2023-03-12T18:10:03.875Z,4.28
2023-03-12T18:12:30.577Z,4.80
2023-03-12T18:14:57.243Z,4.38
2023-03-12T18:17:23.831Z,4.20
2023-03-12T18:19:50.474Z,4.03
2023-03-12T18:22:19.529Z,4.07
2023-03-12T18:24:46.308Z,3.90
2023-03-12T18:27:12.969Z,4.15
2023-03-12T18:29:41.035Z,3.45
2023-03-12T18:32:08.006Z,3.67
2023-03-12T18:34:34.812Z,3.67
2023-03-12T18:37:01.395Z,3.80
2023-03-12T18:39:27.934Z,3.33
2023-03-12T18:41:55.532Z,4.20
2023-03-12T18:44:22.284Z,3.83
2023-03-12T18:46:50.756Z,3.67
2023-03-12T18:49:18.122Z,3.58
2023-03-12T18:51:44.799Z,3.78
2023-03-12T18:54:12.669Z,3.90
2023-03-12T18:56:40.729Z,4.25
2023-03-12T18:59:09.600Z,4.30
2023-03-12T19:01:37.250Z,3.97
2023-03-12T19:04:04.416Z,4.00
2023-03-12T19:06:37.934Z,3.53
2023-03-12T19:09:16.458Z,3.88
2023-03-12T19:11:43.471Z,3.67
2023-03-12T19:14:10.314Z,3.85
2023-03-12T19:16:37.089Z,4.18
2023-03-12T19:19:03.776Z,3.80
2023-03-12T19:21:30.439Z,3.42
2023-03-12T19:23:57.914Z,3.80
2023-03-12T19:26:24.635Z,3.75
2023-03-12T19:28:51.177Z,3.65
2023-03-12T19:31:17.809Z,3.53
2023-03-12T19:33:44.716Z,3.90
2023-03-12T19:36:11.396Z,4.10
2023-03-12T19:38:38.127Z,4.05
2023-03-12T19:41:08.529Z,4.45
2023-03-12T19:43:36.788Z,3.53
2023-03-12T19:46:04.084Z,4.15
2023-03-12T19:48:30.827Z,4.18
2023-03-12T19:50:57.434Z,4.45
2023-03-12T19:53:24.734Z,4.68
2023-03-12T19:55:51.647Z,4.22
2023-03-12T19:58:18.359Z,4.15
2023-03-12T20:00:45.338Z,4.32
2023-03-12T20:03:12.080Z,4.72
2023-03-12T20:05:42.027Z,4.32
2023-03-12T20:08:08.571Z,3.35
2023-03-12T20:10:35.491Z,4.00
2023-03-12T20:13:02.096Z,3.75
2023-03-12T20:15:28.757Z,3.90
2023-03-12T20:17:58.164Z,3.88
2023-03-12T20:20:25.351Z,4.10
2023-03-12T20:22:51.970Z,4.35
2023-03-12T20:25:18.589Z,4.32
2023-03-12T20:27:45.995Z,4.25
2023-03-12T20:30:13.597Z,4.03
2023-03-12T20:32:40.893Z,3.33
2023-03-12T20:35:07.757Z,3.63
2023-03-12T20:37:34.409Z,4.20
2023-03-12T20:40:01.069Z,3.50
2023-03-12T20:42:27.724Z,3.67
2023-03-12T20:44:54.300Z,3.90
2023-03-12T20:47:20.987Z,4.00
2023-03-12T20:49:47.496Z,4.05
2023-03-12T20:52:14.116Z,3.55
2023-03-12T20:54:40.880Z,3.70
2023-03-12T20:57:07.432Z,3.97
2023-03-12T20:59:34.349Z,3.72
2023-03-12T21:02:01.057Z,3.47
2023-03-12T21:04:27.716Z,3.55
2023-03-12T21:06:55.757Z,3.72
2023-03-12T21:09:23.237Z,3.42
2023-03-12T21:11:50.340Z,3.80
2023-03-12T21:14:17.050Z,3.80
2023-03-12T21:16:43.722Z,4.28
2023-03-12T21:19:10.382Z,3.40
2023-03-12T21:21:37.865Z,4.20
2023-03-12T21:24:04.930Z,4.07
2023-03-12T21:26:31.539Z,3.78
2023-03-12T21:28:58.167Z,3.90
2023-03-12T21:31:26.910Z,4.22
2023-03-12T21:33:59.573Z,4.20
2023-03-12T21:36:26.509Z,4.15
2023-03-12T21:38:53.358Z,3.95
2023-03-12T21:41:20.741Z,4.03
2023-03-12T21:43:48.112Z,4.50
2023-03-12T21:46:20.434Z,3.60
2023-03-12T21:48:47.780Z,3.50
2023-03-12T21:51:16.150Z,4.20
2023-03-12T21:53:43.124Z,4.35
2023-03-12T21:56:10.172Z,4.32
2023-03-12T21:58:37.347Z,4.88
2023-03-12T22:01:12.742Z,4.55
2023-03-12T22:03:40.831Z,4.50
2023-03-12T22:06:08.185Z,4.50
2023-03-12T22:08:35.220Z,3.78
2023-03-12T22:11:02.378Z,4.35
2023-03-12T22:13:29.092Z,3.90
2023-03-12T22:16:00.597Z,5.93
2023-03-12T22:18:28.492Z,4.80
2023-03-12T22:20:57.584Z,3.75
2023-03-12T22:23:25.004Z,3.50
2023-03-12T22:25:51.944Z,3.40
2023-03-12T22:28:19.101Z,4.10
2023-03-12T22:30:45.889Z,3.47
2023-03-12T22:33:12.803Z,4.30
2023-03-12T22:35:46.403Z,4.05
2023-03-12T22:38:13.633Z,3.67
2023-03-12T22:40:40.334Z,3.13
2023-03-12T22:43:07.008Z,3.63
2023-03-12T22:45:34.108Z,3.90
2023-03-12T22:48:00.773Z,3.65
2023-03-12T22:50:27.399Z,4.00
2023-03-12T22:52:53.959Z,3.65
2023-03-12T22:55:20.528Z,4.13
2023-03-12T22:57:47.088Z,3.78
2023-03-12T23:00:16.378Z,4.47
2023-03-12T23:02:42.924Z,4.65
2023-03-12T23:05:10.224Z,4.13
2023-03-12T23:07:37.015Z,3.58
2023-03-12T23:10:04.489Z,4.07
2023-03-12T23:12:31.558Z,3.80
2023-03-12T23:14:58.096Z,3.45
2023-03-12T23:17:24.910Z,3.85
2023-03-12T23:19:51.489Z,3.65
2023-03-12T23:22:18.105Z,4.05
2023-03-12T23:24:44.675Z,4.05
2023-03-12T23:27:11.503Z,3.60
2023-03-12T23:29:38.266Z,4.00
2023-03-12T23:32:05.331Z,4.55
2023-03-12T23:34:34.326Z,3.83
2023-03-12T23:37:00.868Z,3.95
2023-03-12T23:39:30.000Z,3.53
2023-03-12T23:41:57.574Z,3.75
2023-03-12T23:44:24.674Z,4.05
2023-03-12T23:46:51.230Z,3.67
2023-03-12T23:49:17.819Z,3.40
2023-03-12T23:51:45.103Z,3.45
2023-03-12T23:54:11.722Z,3.45
2023-03-12T23:56:40.193Z,4.05
2023-03-12T23:59:08.837Z,3.92
